Laton, California
Current Conditions -  °F | °C
As of 11:53 PM on Wednesday 28 Jan 2015 (Local Time) from KHJO Reporting Station
Moderate Fog Moderate Fog  
Wind Chill: 47°   Ceiling: 400
Heat Index: 47°   Visibility: 0.25mi
Dew Point: 46°   Wind: 0mph
Humidity: 97%   Direction: NA
Pressure: 30.19"   Gusts: NA
Location:  36.43°N, 119.69°W
Report Text: KHJO 290753Z AUTO 00000KT 1/4SM FG VV004 08/08 A3019 RMK AO2 SLP225 T00830078 401390056
Loading
Personal Weather Stations






























Interactive Weather Map New forecast layout! Learn more

10-Day Weather Forecast

Advertisements
Track Severe Weather on mobile